Time;durP1;ratioP1;P1;durP2;ratioP2;P2;SDS_P1;SDS_P2;PMS_P1;PMS_P2;Temp;Humidity;BMP_temperature;BMP_pressure;BME280_temperature;BME280_humidity;BME280_pressure;Samples;Min_cycle;Max_cycle;Signal;HPM_P1;HPM_P2
2022/12/14 00:00:26;;;;;;;18.07;15.20;;;2.60;91.10;;;;;;10488823;28;20197;-81
2022/12/14 00:05:28;;;;;;;18.10;16.20;;;2.60;90.60;;;;;;10461164;28;20248;-80
2022/12/14 00:10:32;;;;;;;17.87;16.07;;;2.60;90.80;;;;;;10446153;28;20299;-80
2022/12/14 00:15:37;;;;;;;20.73;15.70;;;2.60;91.40;;;;;;10459211;28;20232;-80
2022/12/14 00:20:39;;;;;;;16.97;15.37;;;2.60;91.00;;;;;;10476581;28;20201;-80
2022/12/14 00:25:42;;;;;;;17.50;15.57;;;2.70;90.50;;;;;;10501839;28;20220;-82
2022/12/14 00:30:44;;;;;;;17.70;15.77;;;2.70;91.40;;;;;;10480559;28;20217;-80
2022/12/14 00:35:46;;;;;;;16.20;14.50;;;2.70;91.80;;;;;;10460198;28;20304;-81
2022/12/14 00:40:53;;;;;;;19.23;16.13;;;2.70;89.10;;;;;;10454650;28;20198;-79
2022/12/14 00:45:58;;;;;;;17.40;15.57;;;2.60;90.90;;;;;;10441181;28;20217;-80
2022/12/14 00:51:00;;;;;;;22.70;17.73;;;2.60;91.30;;;;;;10441655;28;20209;-80
2022/12/14 00:56:07;;;;;;;18.07;15.57;;;2.70;91.60;;;;;;10443591;28;20685;-81
2022/12/14 01:01:12;;;;;;;20.73;18.30;;;2.70;91.50;;;;;;10446671;28;20688;-81
2022/12/14 01:06:19;;;;;;;17.30;15.57;;;2.70;92.20;;;;;;10442907;28;20704;-81
2022/12/14 01:11:23;;;;;;;17.70;15.67;;;2.80;92.00;;;;;;10458017;28;20682;-80
2022/12/14 01:16:25;;;;;;;16.50;14.80;;;2.80;90.80;;;;;;10504842;22;20262;-80
2022/12/14 01:21:28;;;;;;;18.93;16.93;;;2.80;91.10;;;;;;10523789;28;20726;-81
2022/12/14 01:26:35;;;;;;;28.27;20.47;;;2.70;91.50;;;;;;10500426;28;20244;-83
2022/12/14 01:31:38;;;;;;;42.67;26.37;;;2.80;91.90;;;;;;10480442;28;20247;-80
2022/12/14 01:36:40;;;;;;;26.20;18.40;;;2.80;92.20;;;;;;10468008;28;20235;-81
2022/12/14 01:41:48;;;;;;;18.67;16.67;;;2.80;91.80;;;;;;10486659;28;20645;-80
2022/12/14 01:46:56;;;;;;;17.93;16.13;;;2.90;92.20;;;;;;10471267;28;20224;-81
2022/12/14 01:52:02;;;;;;;18.10;16.20;;;2.90;91.70;;;;;;10491113;28;20200;-81
2022/12/14 01:57:06;;;;;;;18.43;16.53;;;2.90;92.10;;;;;;10491897;28;20306;-80
2022/12/14 02:02:11;;;;;;;17.57;15.40;;;3.00;90.50;;;;;;10504171;28;20261;-84
2022/12/14 02:07:15;;;;;;;18.13;16.20;;;2.90;92.00;;;;;;10503517;28;20674;-81
2022/12/14 02:12:21;;;;;;;17.87;16.07;;;2.90;92.00;;;;;;10542627;28;20230;-83
2022/12/14 02:17:29;;;;;;;17.40;15.50;;;2.90;91.60;;;;;;10550228;28;20212;-82
2022/12/14 02:23:21;;;;;;;16.60;14.93;;;2.90;90.70;;;;;;10539021;28;20648;-83
2022/12/14 02:28:59;;;;;;;17.23;15.00;;;2.90;91.80;;;;;;10525427;28;20224;-84
2022/12/14 02:34:09;;;;;;;18.03;16.13;;;2.90;89.70;;;;;;10497179;28;20227;-84
2022/12/14 02:39:21;;;;;;;17.57;15.83;;;2.70;90.70;;;;;;10542443;28;20228;-83
2022/12/14 02:44:31;;;;;;;19.07;17.10;;;2.70;91.90;;;;;;10542996;28;20211;-81
2022/12/14 02:49:52;;;;;;;18.73;16.83;;;2.70;91.60;;;;;;10517925;28;20311;-84
2022/12/14 02:54:58;;;;;;;19.00;17.07;;;2.70;90.60;;;;;;10516795;28;20591;-84
2022/12/14 03:00:04;;;;;;;20.57;16.47;;;2.60;90.60;;;;;;10547777;28;20226;-84
2022/12/14 03:05:08;;;;;;;19.03;17.13;;;2.50;90.70;;;;;;10553377;28;20223;-83
2022/12/14 03:10:19;;;;;;;23.30;17.80;;;2.40;90.70;;;;;;10522801;28;20220;-84
2022/12/14 03:15:24;;;;;;;20.43;18.43;;;2.30;91.80;;;;;;10549262;28;20254;-84
2022/12/14 03:20:30;;;;;;;20.47;18.43;;;2.30;92.90;;;;;;10532236;28;20318;-82
2022/12/14 03:25:37;;;;;;;19.60;17.63;;;2.40;92.80;;;;;;10525849;28;20254;-83
2022/12/14 03:30:42;;;;;;;20.67;18.27;;;2.50;92.50;;;;;;10541167;28;20734;-81
2022/12/14 03:35:54;;;;;;;21.37;19.10;;;2.50;92.40;;;;;;10519810;28;20526;-83
2022/12/14 03:41:08;;;;;;;19.83;17.93;;;2.50;93.40;;;;;;10519769;28;20201;-82
2022/12/14 03:46:15;;;;;;;22.27;19.83;;;2.60;92.90;;;;;;10537034;28;20289;-81
2022/12/14 03:51:24;;;;;;;22.13;19.97;;;2.50;93.40;;;;;;10520960;28;20222;-81
2022/12/14 03:56:36;;;;;;;23.80;19.60;;;2.50;93.60;;;;;;10510728;28;20224;-81
2022/12/14 04:01:44;;;;;;;21.00;18.90;;;2.50;93.80;;;;;;10522180;28;20246;-81
2022/12/14 04:06:52;;;;;;;41.10;28.47;;;2.60;94.50;;;;;;10509141;28;20259;-82
2022/12/14 04:22:44;;;;;;;22.00;19.80;;;2.60;93.80;;;;;;10461218;28;20217;-81
2022/12/14 04:27:51;;;;;;;23.07;20.77;;;2.60;94.50;;;;;;10538944;28;20588;-81
2022/12/14 04:32:58;;;;;;;23.20;20.90;;;2.60;94.60;;;;;;10526526;28;20224;-81
2022/12/14 04:38:06;;;;;;;22.27;20.00;;;2.70;94.80;;;;;;10500924;28;20228;-82
2022/12/14 04:43:13;;;;;;;21.30;19.10;;;2.70;94.50;;;;;;10504777;28;20200;-81
2022/12/14 04:48:21;;;;;;;22.03;19.73;;;2.70;94.20;;;;;;10540074;28;20212;-82
2022/12/14 04:53:28;;;;;;;23.57;21.27;;;2.60;94.30;;;;;;10511376;28;20690;-82
2022/12/14 04:58:31;;;;;;;22.77;20.47;;;2.70;94.30;;;;;;10508241;28;20849;-80
2022/12/14 05:03:36;;;;;;;23.27;20.77;;;2.60;93.90;;;;;;10509983;28;20191;-81
2022/12/14 05:09:17;;;;;;;24.90;21.67;;;2.70;93.90;;;;;;10499160;28;20252;-80
2022/12/14 05:14:26;;;;;;;23.53;21.03;;;2.70;93.90;;;;;;10520575;28;20248;-79
2022/12/14 05:19:28;;;;;;;23.47;20.70;;;2.60;94.60;;;;;;10533602;28;20573;-83
2022/12/14 05:24:30;;;;;;;23.03;20.63;;;2.60;94.20;;;;;;10510972;28;20220;-84
2022/12/14 05:29:34;;;;;;;24.27;21.87;;;2.60;94.30;;;;;;10540110;28;20729;-85
2022/12/14 05:34:36;;;;;;;23.00;20.60;;;2.70;94.40;;;;;;10520447;28;20239;-83
2022/12/14 05:39:38;;;;;;;25.00;21.60;;;2.70;94.70;;;;;;10540739;28;20294;-83
2022/12/14 05:44:41;;;;;;;23.57;21.37;;;2.80;94.90;;;;;;10537481;28;20303;-85
2022/12/14 05:49:43;;;;;;;23.77;21.40;;;2.80;94.10;;;;;;10507140;28;20724;-85
2022/12/14 05:54:45;;;;;;;25.40;22.70;;;2.80;94.80;;;;;;10537714;28;20226;-84
2022/12/14 05:59:49;;;;;;;24.37;21.97;;;2.80;94.10;;;;;;10514864;28;20201;-84
2022/12/14 06:04:51;;;;;;;25.27;22.57;;;2.70;95.30;;;;;;10504510;28;20251;-83
2022/12/14 06:09:53;;;;;;;26.63;23.87;;;2.70;95.20;;;;;;10516681;28;20676;-83
2022/12/14 06:14:56;;;;;;;26.90;23.87;;;2.70;95.70;;;;;;10539123;28;20227;-83
2022/12/14 06:19:58;;;;;;;26.80;23.93;;;2.70;96.20;;;;;;10506679;28;20184;-84
2022/12/14 06:25:00;;;;;;;28.40;24.37;;;2.70;96.20;;;;;;10485756;28;20237;-82
2022/12/14 06:30:04;;;;;;;27.53;24.80;;;2.80;96.60;;;;;;10551427;28;20216;-83
2022/12/14 06:35:08;;;;;;;28.00;25.00;;;2.80;96.80;;;;;;10548108;28;20243;-82
2022/12/14 06:40:11;;;;;;;27.83;24.43;;;2.90;97.20;;;;;;10492143;28;20568;-83
2022/12/14 06:45:14;;;;;;;30.50;27.40;;;2.90;96.70;;;;;;10540614;28;20220;-83
2022/12/14 06:50:16;;;;;;;28.87;25.80;;;2.90;97.70;;;;;;10503323;28;20224;-84
2022/12/14 06:55:18;;;;;;;31.00;27.73;;;2.90;98.20;;;;;;10527978;28;20216;-82
2022/12/14 07:00:23;;;;;;;32.37;27.73;;;2.80;98.90;;;;;;10555089;28;20219;-83
2022/12/14 07:05:25;;;;;;;32.10;28.60;;;2.90;99.70;;;;;;10501046;28;20231;-82
2022/12/14 07:10:27;;;;;;;30.80;27.50;;;2.90;99.40;;;;;;10525520;28;20226;-85
2022/12/14 07:15:31;;;;;;;30.93;27.63;;;2.90;99.90;;;;;;10521318;28;20228;-84
2022/12/14 07:20:33;;;;;;;31.17;27.80;;;3.00;99.60;;;;;;10541177;28;20218;-84
2022/12/14 07:25:35;;;;;;;29.77;26.77;;;3.00;99.80;;;;;;10511340;28;20607;-84
2022/12/14 07:30:38;;;;;;;32.67;28.27;;;3.00;99.30;;;;;;10456514;28;20247;-83
2022/12/14 07:35:41;;;;;;;31.13;27.93;;;3.00;99.20;;;;;;10539625;28;20216;-82
2022/12/14 07:40:43;;;;;;;32.20;28.40;;;3.00;99.50;;;;;;10531939;28;20196;-82
2022/12/14 07:45:46;;;;;;;31.30;28.03;;;3.10;99.50;;;;;;10545153;28;20281;-81
2022/12/14 07:50:49;;;;;;;30.67;27.37;;;3.10;99.60;;;;;;10512638;28;20231;-85
2022/12/14 07:55:51;;;;;;;29.87;26.73;;;3.10;98.30;;;;;;10512904;28;20274;-83
2022/12/14 08:00:54;;;;;;;31.97;28.50;;;3.10;98.90;;;;;;10520132;28;20196;-82
2022/12/14 08:05:57;;;;;;;31.77;28.47;;;3.20;99.30;;;;;;10509328;28;20220;-83
2022/12/14 08:10:59;;;;;;;31.70;28.43;;;3.10;98.90;;;;;;10492180;28;20255;-82
2022/12/14 08:16:07;;;;;;;32.60;29.07;;;3.20;99.30;;;;;;10512806;28;20228;-82
2022/12/14 08:21:11;;;;;;;31.53;28.27;;;3.30;99.20;;;;;;10541942;28;20736;-81
2022/12/14 08:26:13;;;;;;;31.50;28.17;;;3.30;98.70;;;;;;10528370;28;20276;-83
2022/12/14 08:31:18;;;;;;;32.70;28.57;;;3.30;98.70;;;;;;10497656;28;20622;-81
2022/12/14 08:36:23;;;;;;;33.57;28.90;;;3.40;98.90;;;;;;10516857;28;20224;-81
2022/12/14 08:41:26;;;;;;;31.80;28.57;;;3.40;98.60;;;;;;10512341;28;20207;-82
2022/12/14 08:46:31;;;;;;;31.47;28.23;;;3.50;99.30;;;;;;10511772;28;20300;-81
2022/12/14 08:51:37;;;;;;;32.30;28.27;;;3.50;99.20;;;;;;10534228;28;20216;-81
2022/12/14 08:56:39;;;;;;;30.37;27.27;;;3.60;99.50;;;;;;10533350;28;20267;-84
2022/12/14 09:01:42;;;;;;;34.03;27.63;;;3.60;97.80;;;;;;10509922;28;20216;-84
2022/12/14 09:06:44;;;;;;;32.53;29.17;;;3.60;99.20;;;;;;10522074;28;20274;-85
2022/12/14 09:11:47;;;;;;;38.10;30.30;;;3.50;99.90;;;;;;10498948;28;20259;-84
2022/12/14 09:16:50;;;;;;;34.47;30.27;;;3.50;99.90;;;;;;10533092;28;20263;-84
2022/12/14 09:21:54;;;;;;;35.57;31.70;;;3.40;99.90;;;;;;10510769;28;20239;-81
2022/12/14 09:26:59;;;;;;;35.07;31.33;;;3.30;99.90;;;;;;10518364;28;20307;-83
2022/12/14 09:32:02;;;;;;;36.63;32.70;;;3.30;99.90;;;;;;10534811;28;20562;-80
2022/12/14 09:37:06;;;;;;;38.93;33.27;;;3.20;99.90;;;;;;10478471;28;20303;-83
2022/12/14 09:42:21;;;;;;;37.90;33.93;;;3.10;99.90;;;;;;10505522;28;20188;-80
2022/12/14 09:47:30;;;;;;;40.33;35.83;;;3.00;99.90;;;;;;10496332;28;20763;-80
2022/12/14 09:52:38;;;;;;;38.20;34.20;;;2.90;99.90;;;;;;10498514;28;20719;-81
2022/12/14 09:57:43;;;;;;;37.83;33.17;;;2.90;99.90;;;;;;10499806;28;20216;-78
2022/12/14 10:03:01;;;;;;;40.07;34.13;;;2.90;99.90;;;;;;10497807;28;20192;-82
2022/12/14 10:08:08;;;;;;;41.40;36.90;;;2.80;99.90;;;;;;10511822;28;20298;-81
2022/12/14 10:13:19;;;;;;;37.77;33.37;;;2.80;99.90;;;;;;10513946;28;20220;-80
2022/12/14 10:18:40;;;;;;;39.17;34.90;;;2.80;99.90;;;;;;10504269;28;20231;-78
2022/12/14 10:23:51;;;;;;;41.60;36.87;;;2.80;99.90;;;;;;10482963;28;20291;-81
2022/12/14 10:29:00;;;;;;;47.43;38.30;;;2.90;99.90;;;;;;10503395;28;20326;-81
2022/12/14 10:34:16;;;;;;;42.00;37.43;;;2.90;99.90;;;;;;10490343;28;20200;-80
2022/12/14 10:39:25;;;;;;;40.73;36.50;;;3.00;99.90;;;;;;10511524;28;20191;-82
2022/12/14 10:44:37;;;;;;;40.87;36.37;;;3.10;99.90;;;;;;10518200;28;20291;-81
2022/12/14 10:49:50;;;;;;;41.67;36.10;;;3.10;99.90;;;;;;10487144;28;20227;-81
2022/12/14 10:54:55;;;;;;;42.57;37.47;;;3.00;99.90;;;;;;10517878;28;20584;-79
2022/12/14 10:59:57;;;;;;;44.90;40.20;;;2.90;99.90;;;;;;10499186;28;20632;-81
2022/12/14 11:05:03;;;;;;;47.90;40.10;;;3.00;99.90;;;;;;10496681;28;20213;-81
2022/12/14 11:10:18;;;;;;;46.70;41.70;;;3.10;99.90;;;;;;10508950;28;20210;-80
2022/12/14 11:15:26;;;;;;;44.27;38.43;;;3.20;99.90;;;;;;10504742;28;20306;-81
2022/12/14 11:20:29;;;;;;;45.23;40.43;;;3.30;99.90;;;;;;10516375;28;20287;-80
2022/12/14 11:25:39;;;;;;;43.20;38.60;;;3.30;99.90;;;;;;10520868;28;20466;-82
2022/12/14 11:30:51;;;;;;;43.63;39.10;;;3.30;99.90;;;;;;10511199;28;20273;-80
2022/12/14 11:35:55;;;;;;;45.10;40.20;;;3.30;99.90;;;;;;10508683;28;20251;-82
2022/12/14 11:40:58;;;;;;;45.27;40.47;;;3.30;99.90;;;;;;10506558;28;20270;-81
2022/12/14 11:46:01;;;;;;;46.30;41.50;;;3.40;99.90;;;;;;10491334;28;20226;-82
2022/12/14 11:51:13;;;;;;;44.53;39.97;;;3.50;99.90;;;;;;10487916;28;20208;-83
2022/12/14 11:56:18;;;;;;;46.30;40.60;;;3.50;99.90;;;;;;10506626;28;20221;-83
2022/12/14 12:01:24;;;;;;;49.80;41.87;;;3.60;99.90;;;;;;10509531;28;20185;-83
2022/12/14 12:06:29;;;;;;;46.03;41.10;;;3.60;99.90;;;;;;10514621;28;20330;-82
2022/12/14 12:11:34;;;;;;;55.30;43.47;;;3.60;99.90;;;;;;10491170;28;20676;-83
2022/12/14 12:16:43;;;;;;;51.77;46.20;;;3.70;99.90;;;;;;10514842;28;20228;-83
2022/12/14 12:21:47;;;;;;;51.70;43.87;;;3.80;99.90;;;;;;10504597;28;20254;-82
2022/12/14 12:26:51;;;;;;;48.70;43.37;;;3.80;99.90;;;;;;10511152;28;20220;-82
2022/12/14 12:31:57;;;;;;;51.17;44.70;;;3.80;99.90;;;;;;10514560;28;20220;-79
2022/12/14 12:37:05;;;;;;;52.33;46.13;;;3.80;99.90;;;;;;10501089;28;20240;-81
2022/12/14 12:42:17;;;;;;;49.40;44.10;;;3.80;99.90;;;;;;10510628;28;20196;-80
2022/12/14 12:47:27;;;;;;;52.10;44.10;;;3.90;99.90;;;;;;10487474;28;20227;-83
2022/12/14 12:52:35;;;;;;;46.90;41.90;;;3.80;99.90;;;;;;10530919;28;20252;-80
2022/12/14 12:57:41;;;;;;;45.83;40.80;;;3.80;99.90;;;;;;10490897;28;20208;-81
2022/12/14 13:02:48;;;;;;;48.37;43.17;;;3.80;99.90;;;;;;10500738;28;20190;-80
2022/12/14 13:07:54;;;;;;;47.10;42.00;;;3.70;99.90;;;;;;10460444;28;20220;-81
2022/12/14 13:12:59;;;;;;;47.83;42.70;;;3.70;99.90;;;;;;10479284;28;20229;-80
2022/12/14 13:18:05;;;;;;;60.13;46.50;;;3.70;99.90;;;;;;10482178;28;20216;-80
2022/12/14 13:23:11;;;;;;;49.07;43.30;;;3.70;99.90;;;;;;10469714;28;20217;-82
2022/12/14 13:28:37;;;;;;;49.40;44.10;;;3.70;99.90;;;;;;10506555;28;20280;-82
2022/12/14 13:33:59;;;;;;;51.47;43.93;;;3.70;99.90;;;;;;10473654;28;20221;-80
2022/12/14 13:39:32;;;;;;;57.40;46.40;;;3.70;99.90;;;;;;10491534;28;20309;-80
2022/12/14 13:44:51;;;;;;;47.47;42.37;;;3.80;99.90;;;;;;10435554;28;20216;-79
2022/12/14 13:49:57;;;;;;;48.87;43.63;;;3.70;99.90;;;;;;10505180;28;20692;-80
2022/12/14 13:55:01;;;;;;;48.20;42.97;;;3.80;99.90;;;;;;10503075;28;20220;-81
2022/12/14 14:00:05;;;;;;;48.43;43.13;;;3.80;99.90;;;;;;10504935;28;20220;-81
2022/12/14 14:05:45;;;;;;;51.30;44.30;;;3.80;99.90;;;;;;10505910;28;20231;-81
2022/12/14 14:10:49;;;;;;;46.57;41.40;;;3.80;99.90;;;;;;10498817;28;20282;-81
2022/12/14 14:15:54;;;;;;;47.00;40.63;;;3.80;99.90;;;;;;10512614;28;20243;-80
2022/12/14 14:21:28;;;;;;;49.50;42.23;;;3.80;99.90;;;;;;10510290;28;20205;-81
2022/12/14 14:26:33;;;;;;;42.47;37.80;;;3.80;99.90;;;;;;10512504;28;20267;-82
2022/12/14 14:31:50;;;;;;;45.07;40.03;;;3.70;99.90;;;;;;10508678;28;20298;-81
2022/12/14 14:36:52;;;;;;;47.30;42.20;;;3.70;99.90;;;;;;10511814;28;20216;-82
2022/12/14 14:48:30;;;;;;;42.37;36.63;;;3.60;99.90;;;;;;10504106;28;20544;-82
2022/12/14 14:53:34;;;;;;;46.83;41.80;;;3.50;99.90;;;;;;10513570;28;20228;-82
2022/12/14 14:58:38;;;;;;;44.87;39.90;;;3.50;99.90;;;;;;10526009;28;20216;-80
2022/12/14 15:03:51;;;;;;;43.70;39.20;;;3.40;99.90;;;;;;10498018;28;20638;-78
2022/12/14 15:08:59;;;;;;;41.63;36.60;;;3.40;99.90;;;;;;10498918;28;20254;-78
2022/12/14 15:14:04;;;;;;;42.07;37.47;;;3.40;99.90;;;;;;10498501;28;20224;-79
2022/12/14 15:19:23;;;;;;;41.13;36.73;;;3.40;99.90;;;;;;10485531;28;20311;-78
2022/12/14 15:24:26;;;;;;;30.57;27.23;;;3.30;99.90;;;;;;10478369;28;20311;-80
2022/12/14 15:29:28;;;;;;;38.97;34.97;;;3.20;99.90;;;;;;10499207;28;20196;-80
2022/12/14 15:34:31;;;;;;;40.40;35.90;;;3.30;99.90;;;;;;10492787;28;20224;-78
2022/12/14 15:39:38;;;;;;;38.87;34.80;;;3.20;99.90;;;;;;10478025;28;20209;-78
2022/12/14 15:44:49;;;;;;;41.37;36.87;;;3.20;99.90;;;;;;10492728;28;20205;-81
2022/12/14 15:49:52;;;;;;;40.53;36.20;;;3.20;99.90;;;;;;10501492;28;20624;-79
2022/12/14 15:54:55;;;;;;;40.10;35.80;;;3.20;99.90;;;;;;10525957;28;20677;-81
2022/12/14 15:59:57;;;;;;;39.50;35.47;;;3.10;99.90;;;;;;10504166;28;20204;-82
2022/12/14 16:05:06;;;;;;;44.40;39.70;;;3.20;99.90;;;;;;10534515;28;20278;-80
2022/12/14 16:10:19;;;;;;;39.40;35.30;;;3.20;99.90;;;;;;10505787;28;20798;-80
2022/12/14 16:15:23;;;;;;;40.17;35.90;;;3.20;99.90;;;;;;10554502;28;20246;-78
2022/12/14 16:20:30;;;;;;;41.40;37.10;;;3.10;99.90;;;;;;10539698;28;20190;-81
2022/12/14 16:25:34;;;;;;;41.03;36.33;;;3.10;99.90;;;;;;10501779;28;20260;-79
2022/12/14 16:30:37;;;;;;;37.67;33.87;;;3.10;99.90;;;;;;10497216;28;20308;-80
2022/12/14 16:35:40;;;;;;;39.00;35.03;;;3.10;99.90;;;;;;10505182;28;20216;-79
2022/12/14 16:40:51;;;;;;;41.13;36.73;;;3.00;99.90;;;;;;10539093;28;20604;-80
2022/12/14 16:46:12;;;;;;;38.97;35.00;;;3.00;99.90;;;;;;10531532;28;20239;-79
2022/12/14 16:51:28;;;;;;;37.77;33.97;;;3.10;99.90;;;;;;10485058;28;20244;-80
2022/12/14 16:56:32;;;;;;;38.43;34.37;;;3.10;99.90;;;;;;10521925;28;20368;-80
2022/12/14 17:01:43;;;;;;;38.93;34.83;;;3.10;99.90;;;;;;10529526;28;20188;-78
2022/12/14 17:06:49;;;;;;;40.67;35.87;;;3.10;99.90;;;;;;10514503;28;20590;-78
2022/12/14 17:11:54;;;;;;;37.00;33.00;;;3.10;99.90;;;;;;10526774;28;20303;-80
2022/12/14 17:17:00;;;;;;;34.87;31.33;;;3.10;99.90;;;;;;10525516;28;20973;-80
2022/12/14 17:22:06;;;;;;;36.57;32.67;;;3.10;99.90;;;;;;10514181;28;20212;-81
2022/12/14 17:27:11;;;;;;;35.60;32.00;;;3.10;99.90;;;;;;10530235;28;20228;-81
2022/12/14 17:32:15;;;;;;;35.70;32.13;;;3.10;99.90;;;;;;10516174;28;20219;-81
2022/12/14 17:37:21;;;;;;;34.17;30.77;;;3.10;99.90;;;;;;10525354;28;20300;-80
2022/12/14 17:42:23;;;;;;;33.87;30.43;;;3.10;99.90;;;;;;10526268;28;20214;-80
2022/12/14 17:47:25;;;;;;;34.60;31.10;;;3.10;99.90;;;;;;10534303;28;20217;-79
2022/12/14 17:52:30;;;;;;;34.13;30.73;;;3.10;99.90;;;;;;10520146;28;20275;-78
2022/12/14 17:57:32;;;;;;;33.43;30.13;;;3.10;99.90;;;;;;10512151;28;20242;-79
2022/12/14 18:02:35;;;;;;;32.07;28.77;;;3.10;99.90;;;;;;10528885;28;20196;-80
2022/12/14 18:07:38;;;;;;;34.17;30.67;;;3.10;99.90;;;;;;10511102;28;20240;-79
2022/12/14 18:12:41;;;;;;;31.37;28.37;;;3.10;99.90;;;;;;10510657;28;20235;-79
2022/12/14 18:17:43;;;;;;;32.67;29.27;;;3.10;99.90;;;;;;10512017;28;20230;-82
2022/12/14 18:22:47;;;;;;;31.73;28.33;;;3.10;99.90;;;;;;10536392;28;20192;-80
2022/12/14 18:27:49;;;;;;;30.40;27.40;;;3.10;99.90;;;;;;10513891;28;20219;-81
2022/12/14 18:32:51;;;;;;;32.20;28.73;;;3.10;99.90;;;;;;10533628;28;20224;-82
2022/12/14 18:37:55;;;;;;;33.70;30.20;;;3.10;99.90;;;;;;10512651;28;20211;-82
2022/12/14 18:42:57;;;;;;;34.30;30.70;;;3.10;99.90;;;;;;10517841;28;20231;-80
2022/12/14 18:48:00;;;;;;;32.40;29.10;;;3.10;99.90;;;;;;10534277;28;20224;-81
2022/12/14 18:53:04;;;;;;;33.53;30.30;;;3.10;99.90;;;;;;10505485;28;20293;-81
2022/12/14 18:58:06;;;;;;;34.20;30.87;;;3.10;99.90;;;;;;10525388;28;20209;-78
2022/12/14 19:03:08;;;;;;;34.10;30.50;;;3.10;99.90;;;;;;10538090;28;20192;-78
2022/12/14 19:08:12;;;;;;;33.70;30.17;;;3.20;99.90;;;;;;10553375;28;20640;-81
2022/12/14 19:13:16;;;;;;;34.30;30.80;;;3.20;99.90;;;;;;10510158;28;20644;-83
2022/12/14 19:18:18;;;;;;;33.03;29.63;;;3.20;99.90;;;;;;10512567;28;20248;-81
2022/12/14 19:23:21;;;;;;;30.90;27.83;;;3.10;99.90;;;;;;10502352;28;20676;-81
2022/12/14 19:28:23;;;;;;;34.60;31.10;;;3.10;99.90;;;;;;10536699;28;20371;-80
2022/12/14 19:33:26;;;;;;;34.83;31.10;;;3.10;99.90;;;;;;10474018;28;20635;-81
2022/12/14 19:38:29;;;;;;;33.37;29.83;;;3.10;99.90;;;;;;10504784;28;20220;-81
2022/12/14 19:43:31;;;;;;;33.87;30.40;;;3.10;99.90;;;;;;10534296;28;20250;-80
2022/12/14 19:48:33;;;;;;;34.57;30.97;;;3.10;99.90;;;;;;10505388;28;20243;-79
2022/12/14 19:53:38;;;;;;;36.00;32.23;;;3.10;99.90;;;;;;10530589;28;20223;-80
2022/12/14 19:58:40;;;;;;;36.37;32.47;;;3.10;99.90;;;;;;10540095;28;20246;-80
2022/12/14 20:03:42;;;;;;;37.00;33.03;;;3.10;99.90;;;;;;10523003;28;20196;-81
2022/12/14 20:08:50;;;;;;;37.47;33.50;;;3.10;99.90;;;;;;10533574;28;20217;-80
2022/12/14 20:13:52;;;;;;;39.00;34.80;;;3.10;99.90;;;;;;10494646;28;20230;-80
2022/12/14 20:18:54;;;;;;;41.00;36.47;;;3.10;99.90;;;;;;10525797;28;20201;-82
2022/12/14 20:23:59;;;;;;;38.50;34.37;;;3.10;99.90;;;;;;10501375;28;20243;-80
2022/12/14 20:29:03;;;;;;;40.20;36.00;;;3.10;99.90;;;;;;10503556;28;20297;-84
2022/12/14 20:34:07;;;;;;;42.50;36.97;;;3.10;99.90;;;;;;10525761;28;20664;-85
2022/12/14 20:39:11;;;;;;;40.70;36.20;;;3.10;99.90;;;;;;10503147;28;20200;-85
2022/12/14 20:44:14;;;;;;;41.57;37.07;;;3.10;99.90;;;;;;10544019;28;20212;-84
2022/12/14 20:49:18;;;;;;;43.47;37.97;;;3.10;99.90;;;;;;10526639;28;20204;-84
2022/12/14 20:54:22;;;;;;;43.47;38.97;;;3.10;99.90;;;;;;10519568;28;20232;-84
2022/12/14 20:59:25;;;;;;;46.70;39.50;;;3.10;99.90;;;;;;10532365;28;20224;-81
2022/12/14 21:04:27;;;;;;;42.50;37.90;;;3.10;99.90;;;;;;10528171;28;20216;-83
2022/12/14 21:09:31;;;;;;;42.67;37.40;;;3.00;99.90;;;;;;10528464;28;20879;-84
2022/12/14 21:14:35;;;;;;;41.90;37.50;;;3.00;99.90;;;;;;10462921;28;20220;-81
2022/12/14 21:19:37;;;;;;;45.60;40.17;;;3.00;99.90;;;;;;10483868;28;20211;-84
2022/12/14 21:24:43;;;;;;;44.13;38.90;;;3.00;99.90;;;;;;10487798;28;20227;-83
2022/12/14 21:29:51;;;;;;;41.97;36.37;;;3.00;99.90;;;;;;10485463;28;20319;-85
2022/12/14 21:34:53;;;;;;;46.63;40.20;;;3.00;99.90;;;;;;10479880;28;20213;-81
2022/12/14 21:39:57;;;;;;;41.87;37.47;;;3.00;99.90;;;;;;10488213;28;20223;-84
2022/12/14 21:44:59;;;;;;;43.73;39.03;;;3.00;99.90;;;;;;10490041;28;20498;-84
2022/12/14 21:50:01;;;;;;;47.70;38.67;;;3.10;99.90;;;;;;10503013;28;20220;-85
2022/12/14 21:55:05;;;;;;;46.87;40.73;;;3.00;99.90;;;;;;10519875;28;20228;-85
2022/12/14 22:00:23;;;;;;;42.97;38.43;;;3.10;99.90;;;;;;10498352;27;20542;-84
2022/12/14 22:05:25;;;;;;;45.57;38.00;;;3.00;99.90;;;;;;10483459;28;20227;-84
2022/12/14 22:10:27;;;;;;;41.20;36.87;;;3.00;99.90;;;;;;10495359;28;20544;-84
2022/12/14 22:15:31;;;;;;;43.40;37.83;;;3.00;99.90;;;;;;10501705;28;20250;-85
2022/12/14 22:20:34;;;;;;;44.77;39.70;;;3.00;99.90;;;;;;10500292;28;20203;-84
2022/12/14 22:25:36;;;;;;;43.00;38.40;;;2.90;99.90;;;;;;10500694;28;20683;-85
2022/12/14 22:30:40;;;;;;;44.43;39.53;;;3.00;99.90;;;;;;10497961;28;20279;-85
2022/12/14 22:35:42;;;;;;;42.53;38.13;;;2.90;99.90;;;;;;10506943;28;20224;-83
2022/12/14 22:40:44;;;;;;;43.47;38.77;;;2.90;99.90;;;;;;10496706;28;20223;-83
2022/12/14 22:45:47;;;;;;;43.20;38.50;;;2.90;99.90;;;;;;10504308;28;20576;-87
2022/12/14 22:50:49;;;;;;;41.97;37.47;;;2.90;99.90;;;;;;10466682;28;20194;-83
2022/12/14 22:55:52;;;;;;;42.60;37.93;;;2.90;99.90;;;;;;10515178;28;20288;-83
2022/12/14 23:00:55;;;;;;;46.37;39.53;;;2.90;99.90;;;;;;10495582;28;20251;-83
2022/12/14 23:05:58;;;;;;;43.33;38.50;;;2.90;99.90;;;;;;10489381;28;20205;-82
